Time;durP1;ratioP1;P1;durP2;ratioP2;P2;SDS_P1;SDS_P2;PMS_P1;PMS_P2;Temp;Humidity;BMP_temperature;BMP_pressure;BME280_temperature;BME280_humidity;BME280_pressure;Samples;Min_cycle;Max_cycle;Signal;HPM_P1;HPM_P2
2021/10/20 04:33:28;;;;;;;4.47;3.77;;;7.70;99.90;;;;;;4966843;28;20498;-76
2021/10/20 04:35:53;;;;;;;6.20;4.10;;;7.70;99.90;;;;;;4971127;28;20989;-75
2021/10/20 04:38:19;;;;;;;4.83;3.97;;;7.60;99.90;;;;;;4971695;28;20182;-76
2021/10/20 04:40:45;;;;;;;6.60;4.23;;;7.60;99.90;;;;;;4973520;28;20569;-75
2021/10/20 04:43:10;;;;;;;5.10;4.60;;;7.60;99.90;;;;;;4972545;28;20179;-75
2021/10/20 04:45:36;;;;;;;8.67;5.60;;;7.60;99.90;;;;;;4973251;28;20181;-75
2021/10/20 04:48:01;;;;;;;8.97;7.00;;;7.60;99.90;;;;;;4972880;28;20626;-76
2021/10/20 04:50:27;;;;;;;5.90;4.80;;;7.50;99.90;;;;;;4972824;28;20257;-75
2021/10/20 04:52:53;;;;;;;4.90;3.33;;;7.60;99.90;;;;;;4971403;28;20262;-75
2021/10/20 04:55:18;;;;;;;4.30;3.70;;;7.60;99.90;;;;;;4972868;28;20251;-75
2021/10/20 04:57:51;;;;;;;6.17;3.30;;;7.60;99.90;;;;;;4972845;28;20166;-76
2021/10/20 05:00:18;;;;;;;3.97;3.57;;;7.60;99.90;;;;;;4972907;28;20179;-76
2021/10/20 05:02:43;;;;;;;5.57;3.70;;;7.60;99.90;;;;;;4971090;28;20431;-76
2021/10/20 05:05:09;;;;;;;4.97;4.50;;;7.60;99.90;;;;;;4972809;28;20754;-76
2021/10/20 05:07:51;;;;;;;4.97;4.33;;;7.60;99.90;;;;;;4972775;28;20275;-76
2021/10/20 05:10:17;;;;;;;5.40;4.40;;;7.50;99.90;;;;;;4973047;28;20435;-76
2021/10/20 05:12:43;;;;;;;6.03;4.53;;;7.50;99.90;;;;;;4972510;28;20558;-75
2021/10/20 05:15:09;;;;;;;7.00;4.50;;;7.50;99.90;;;;;;4972732;28;20786;-76
2021/10/20 05:17:35;;;;;;;9.47;4.87;;;7.50;99.90;;;;;;4971576;28;20419;-75
2021/10/20 05:20:01;;;;;;;8.20;4.60;;;7.50;99.90;;;;;;4972812;28;20181;-76
2021/10/20 05:22:27;;;;;;;5.33;4.03;;;7.40;99.90;;;;;;4972971;28;20285;-75
2021/10/20 05:24:52;;;;;;;4.23;3.83;;;7.40;99.90;;;;;;4972896;28;20514;-76
2021/10/20 05:27:18;;;;;;;6.63;4.50;;;7.50;99.90;;;;;;4972500;28;20241;-76
2021/10/20 05:29:43;;;;;;;8.97;4.33;;;7.60;99.90;;;;;;4972524;28;20173;-76
2021/10/20 05:32:09;;;;;;;5.00;4.10;;;7.60;99.90;;;;;;4971892;28;20264;-74
2021/10/20 05:34:34;;;;;;;5.83;4.20;;;7.60;99.90;;;;;;4972556;28;20182;-75
2021/10/20 05:37:00;;;;;;;6.57;4.30;;;7.60;99.90;;;;;;4972521;28;20173;-76
2021/10/20 05:39:25;;;;;;;5.00;4.47;;;7.60;99.90;;;;;;4972503;28;20592;-75
2021/10/20 05:41:51;;;;;;;5.90;4.83;;;7.60;99.90;;;;;;4972331;28;20210;-75
2021/10/20 05:44:18;;;;;;;10.60;6.80;;;7.60;99.90;;;;;;4972226;28;20206;-75
2021/10/20 05:46:45;;;;;;;5.40;4.90;;;7.60;99.90;;;;;;4971270;28;20404;-76
2021/10/20 05:49:11;;;;;;;7.90;4.77;;;7.60;99.90;;;;;;4972348;28;20412;-76
2021/10/20 05:51:37;;;;;;;6.83;4.77;;;7.60;99.90;;;;;;4966173;28;20463;-76
2021/10/20 05:54:03;;;;;;;8.40;5.03;;;7.70;99.90;;;;;;4961201;28;20440;-75
2021/10/20 05:56:28;;;;;;;7.50;6.20;;;7.70;99.90;;;;;;4953348;29;20692;-75
2021/10/20 05:58:54;;;;;;;6.83;4.87;;;7.70;99.90;;;;;;4953293;29;20175;-75
2021/10/20 06:01:23;;;;;;;5.57;4.77;;;7.70;99.90;;;;;;4953053;28;20199;-75
2021/10/20 06:03:49;;;;;;;6.90;5.00;;;7.70;99.90;;;;;;4951817;29;20557;-75
2021/10/20 06:06:14;;;;;;;6.90;4.60;;;7.70;99.90;;;;;;4953115;29;20936;-76
2021/10/20 06:08:40;;;;;;;5.47;4.87;;;7.70;99.90;;;;;;4954919;28;20418;-76
2021/10/20 06:11:05;;;;;;;5.37;4.27;;;7.80;99.90;;;;;;4956346;28;20201;-75
2021/10/20 06:13:31;;;;;;;6.83;4.57;;;7.80;99.90;;;;;;4956448;29;20243;-76
2021/10/20 06:15:56;;;;;;;16.10;4.00;;;7.90;99.90;;;;;;4956637;29;20187;-76
2021/10/20 06:18:23;;;;;;;4.57;4.10;;;7.90;99.90;;;;;;4956396;29;20188;-76
2021/10/20 06:20:48;;;;;;;5.10;4.20;;;8.00;99.90;;;;;;4956592;28;20766;-75
2021/10/20 06:23:14;;;;;;;9.33;5.10;;;8.10;99.90;;;;;;4955988;29;20517;-76
2021/10/20 06:25:39;;;;;;;6.37;4.50;;;8.20;99.90;;;;;;4956452;29;20189;-76
2021/10/20 06:28:05;;;;;;;7.23;4.83;;;8.30;99.90;;;;;;4956024;29;20176;-72
2021/10/20 06:30:31;;;;;;;8.10;4.87;;;8.50;99.90;;;;;;4956152;28;20178;-74
2021/10/20 06:32:56;;;;;;;5.60;3.97;;;8.50;99.90;;;;;;4955458;29;20243;-74
2021/10/20 06:35:22;;;;;;;7.93;5.20;;;8.70;99.90;;;;;;4955957;29;20186;-76
2021/10/20 06:37:51;;;;;;;8.00;5.50;;;8.80;99.90;;;;;;4955930;29;20190;-73
2021/10/20 06:40:17;;;;;;;6.00;4.30;;;9.00;99.90;;;;;;4955840;29;20618;-75
2021/10/20 06:42:42;;;;;;;8.10;3.90;;;9.00;99.90;;;;;;4955881;28;20549;-75
2021/10/20 06:45:09;;;;;;;6.60;4.20;;;9.10;99.90;;;;;;4955756;29;20418;-73
2021/10/20 06:47:35;;;;;;;6.60;4.13;;;9.20;99.90;;;;;;4955672;29;20195;-76
2021/10/20 06:50:00;;;;;;;7.30;4.73;;;9.40;99.90;;;;;;4955563;29;20788;-74
2021/10/20 06:52:26;;;;;;;8.90;4.50;;;9.50;99.90;;;;;;4955329;28;20595;-75
2021/10/20 06:54:51;;;;;;;4.57;3.80;;;9.60;99.90;;;;;;4955690;29;20214;-74
2021/10/20 06:57:17;;;;;;;10.13;3.77;;;9.80;99.90;;;;;;4955513;29;20708;-75
2021/10/20 06:59:43;;;;;;;5.33;4.07;;;10.10;99.90;;;;;;4955467;29;20179;-75
2021/10/20 07:02:09;;;;;;;3.77;3.40;;;11.40;99.90;;;;;;4955070;28;20196;-73
2021/10/20 07:04:34;;;;;;;4.13;3.60;;;13.10;99.90;;;;;;4955432;29;20184;-75
2021/10/20 07:07:00;;;;;;;6.30;2.90;;;14.90;99.90;;;;;;4955423;29;20181;-75
2021/10/20 07:09:25;;;;;;;5.83;3.23;;;16.30;99.90;;;;;;4954116;29;20638;-75
2021/10/20 07:11:51;;;;;;;7.83;3.37;;;18.00;99.90;;;;;;4955389;28;20212;-75
2021/10/20 07:14:17;;;;;;;6.20;3.23;;;19.20;99.90;;;;;;4954977;29;20173;-73
2021/10/20 07:16:43;;;;;;;4.50;2.97;;;20.30;99.90;;;;;;4955456;29;20173;-73
2021/10/20 07:19:08;;;;;;;7.50;3.70;;;21.00;99.90;;;;;;4952850;28;20272;-73
2021/10/20 07:21:35;;;;;;;4.23;3.20;;;21.10;99.90;;;;;;4954771;28;20572;-73
2021/10/20 07:24:01;;;;;;;3.43;2.97;;;21.50;99.90;;;;;;4954763;29;20267;-72
2021/10/20 07:26:27;;;;;;;4.13;3.07;;;21.80;99.90;;;;;;4954870;29;20511;-74
2021/10/20 07:28:52;;;;;;;6.70;3.17;;;21.70;99.90;;;;;;4954791;29;20499;-73
2021/10/20 07:31:18;;;;;;;3.20;2.90;;;22.40;99.90;;;;;;4950329;28;20679;-72
2021/10/20 07:33:43;;;;;;;5.67;3.47;;;22.20;99.90;;;;;;4954066;29;20209;-72
2021/10/20 07:36:09;;;;;;;5.43;3.33;;;22.10;99.90;;;;;;4954800;29;20260;-72
2021/10/20 07:38:35;;;;;;;10.00;4.00;;;21.90;99.90;;;;;;4954079;29;20180;-72
2021/10/20 07:41:01;;;;;;;4.10;2.90;;;21.50;99.90;;;;;;4954598;28;20204;-72
2021/10/20 07:43:26;;;;;;;3.90;3.50;;;21.50;99.90;;;;;;4954526;29;20503;-73
2021/10/20 07:45:52;;;;;;;3.63;2.97;;;21.40;99.90;;;;;;4970523;28;20259;-74
2021/10/20 07:48:17;;;;;;;6.57;3.30;;;21.40;99.90;;;;;;4973171;28;20184;-72
2021/10/20 07:50:43;;;;;;;2.73;2.53;;;21.00;99.90;;;;;;4973637;28;20183;-72
2021/10/20 07:53:09;;;;;;;2.90;2.70;;;20.70;99.90;;;;;;4973279;28;20319;-73
2021/10/20 07:55:35;;;;;;;5.87;3.33;;;20.50;99.90;;;;;;4973867;28;20191;-73
2021/10/20 07:58:01;;;;;;;6.73;3.10;;;20.60;99.90;;;;;;4972990;28;20426;-73
2021/10/20 08:00:30;;;;;;;5.87;3.77;;;20.50;99.90;;;;;;4977531;28;20443;-72
2021/10/20 08:02:56;;;;;;;8.30;2.43;;;20.50;99.90;;;;;;4973116;28;20188;-74
2021/10/20 08:05:22;;;;;;;6.47;2.87;;;20.60;99.90;;;;;;4973559;28;20571;-72
2021/10/20 08:07:47;;;;;;;2.43;2.23;;;20.70;99.90;;;;;;4973014;28;20195;-72
2021/10/20 08:10:20;;;;;;;3.43;3.13;;;20.80;99.90;;;;;;4973281;28;20423;-72
2021/10/20 08:12:45;;;;;;;8.60;3.97;;;21.10;99.90;;;;;;4972764;28;20219;-73
2021/10/20 08:15:14;;;;;;;9.97;4.67;;;21.30;99.90;;;;;;4973250;28;20419;-72
2021/10/20 08:17:40;;;;;;;10.27;3.53;;;21.00;99.90;;;;;;4972940;28;20176;-72
2021/10/20 08:20:09;;;;;;;3.83;3.53;;;20.90;99.90;;;;;;4972912;28;20414;-73
2021/10/20 08:22:35;;;;;;;5.70;3.50;;;20.70;99.90;;;;;;4972873;28;20627;-73
2021/10/20 08:25:01;;;;;;;12.33;4.60;;;20.70;99.90;;;;;;4973143;28;20431;-73
2021/10/20 08:27:27;;;;;;;5.67;4.00;;;20.60;99.90;;;;;;4973141;28;20455;-74
2021/10/20 08:29:53;;;;;;;6.47;4.00;;;20.60;99.90;;;;;;4972753;28;20553;-74
2021/10/20 08:32:18;;;;;;;4.80;3.43;;;20.90;99.90;;;;;;4971630;28;20506;-73
2021/10/20 08:34:44;;;;;;;8.10;3.53;;;21.20;99.90;;;;;;4972687;28;20175;-71
2021/10/20 08:37:10;;;;;;;3.57;3.27;;;21.10;99.90;;;;;;4972835;28;20187;-73
2021/10/20 08:39:35;;;;;;;7.43;3.40;;;21.30;99.90;;;;;;4972873;28;20542;-75
2021/10/20 08:42:01;;;;;;;2.97;2.70;;;20.90;99.90;;;;;;4972825;28;20211;-72
2021/10/20 08:44:26;;;;;;;6.07;3.50;;;20.80;99.90;;;;;;4973245;28;20184;-76
2021/10/20 08:46:53;;;;;;;2.27;2.17;;;20.70;99.90;;;;;;4973246;28;20226;-76
2021/10/20 08:49:18;;;;;;;3.17;2.50;;;20.60;99.90;;;;;;4972852;28;20233;-75
2021/10/20 08:51:45;;;;;;;4.73;1.87;;;20.60;99.90;;;;;;4972821;28;22385;-77
2021/10/20 08:54:11;;;;;;;2.50;2.27;;;20.30;99.90;;;;;;4972829;28;20192;-76
2021/10/20 08:56:37;;;;;;;2.77;2.57;;;20.20;99.90;;;;;;4972981;28;20937;-76
2021/10/20 08:59:03;;;;;;;2.33;2.13;;;20.00;99.90;;;;;;4972726;28;20412;-76
2021/10/20 09:01:29;;;;;;;2.10;2.00;;;19.90;99.90;;;;;;4972601;28;20231;-76
2021/10/20 09:03:54;;;;;;;2.77;2.43;;;20.20;99.90;;;;;;4972458;28;20503;-73
2021/10/20 09:06:20;;;;;;;3.63;2.33;;;20.60;99.90;;;;;;4972552;28;20235;-73
2021/10/20 09:08:47;;;;;;;2.03;1.83;;;20.90;99.90;;;;;;4972082;28;20191;-72
2021/10/20 09:11:33;;;;;;;3.90;2.20;;;21.30;99.90;;;;;;4971137;28;20657;-73
2021/10/20 09:14:04;;;;;;;2.50;2.30;;;21.30;99.90;;;;;;4972127;28;20505;-73
2021/10/20 09:16:31;;;;;;;4.00;2.03;;;21.30;99.90;;;;;;4972593;28;20407;-74
2021/10/20 09:18:58;;;;;;;3.63;2.03;;;21.30;99.90;;;;;;4972261;28;20415;-73
2021/10/20 09:21:25;;;;;;;2.90;1.90;;;21.30;99.90;;;;;;4972319;28;20415;-73
2021/10/20 09:23:50;;;;;;;2.10;2.00;;;21.40;99.90;;;;;;4972023;28;20411;-73
2021/10/20 09:26:16;;;;;;;3.17;2.23;;;21.60;99.90;;;;;;4972334;28;20923;-73
2021/10/20 09:28:41;;;;;;;3.33;3.00;;;21.60;99.90;;;;;;4972230;28;20176;-73
2021/10/20 09:31:10;;;;;;;5.40;1.83;;;21.70;99.90;;;;;;4972108;28;20661;-73
2021/10/20 09:33:41;;;;;;;5.37;2.70;;;21.70;99.90;;;;;;4972211;28;20692;-74
2021/10/20 09:36:15;;;;;;;2.43;2.23;;;21.70;99.90;;;;;;4972249;28;20492;-73
2021/10/20 09:38:45;;;;;;;3.03;2.00;;;21.70;99.90;;;;;;4972249;28;20403;-73
2021/10/20 09:41:12;;;;;;;2.60;2.40;;;21.90;99.90;;;;;;4972129;28;20443;-74
2021/10/20 09:43:53;;;;;;;3.37;1.80;;;22.20;99.90;;;;;;4973677;28;20459;-73
2021/10/20 09:46:39;;;;;;;5.03;2.20;;;22.50;99.90;;;;;;4976115;28;20419;-74
2021/10/20 09:49:19;;;;;;;14.97;2.60;;;22.50;99.90;;;;;;4975667;28;20411;-74
2021/10/20 09:51:47;;;;;;;3.50;2.30;;;22.90;99.90;;;;;;4975852;28;20814;-75
2021/10/20 09:54:28;;;;;;;8.73;1.80;;;23.10;99.90;;;;;;4975587;28;20419;-75
2021/10/20 09:56:55;;;;;;;3.23;2.57;;;23.50;99.90;;;;;;4976065;28;20419;-76
2021/10/20 09:59:21;;;;;;;4.80;2.53;;;24.00;99.90;;;;;;4975991;28;20908;-75
2021/10/20 10:01:47;;;;;;;2.63;2.23;;;24.70;99.90;;;;;;4975889;28;20435;-74
2021/10/20 10:04:13;;;;;;;2.83;1.93;;;25.10;99.90;;;;;;4975587;28;20226;-74
2021/10/20 10:06:39;;;;;;;3.80;2.10;;;25.50;99.90;;;;;;4975803;28;20407;-74
2021/10/20 10:09:09;;;;;;;2.33;1.90;;;25.10;99.90;;;;;;4986720;28;20210;-75
2021/10/20 10:11:37;;;;;;;3.90;2.40;;;25.00;99.90;;;;;;4975570;28;20474;-75
2021/10/20 10:14:05;;;;;;;2.43;2.10;;;24.50;99.90;;;;;;4975013;28;20415;-75
2021/10/20 10:16:32;;;;;;;2.97;2.30;;;23.90;99.90;;;;;;4975540;28;20411;-74
2021/10/20 10:19:00;;;;;;;2.27;2.07;;;23.80;99.90;;;;;;4975209;28;20422;-74
2021/10/20 10:21:37;;;;;;;5.83;2.23;;;24.20;99.90;;;;;;4975163;28;20431;-74
2021/10/20 10:24:08;;;;;;;3.23;2.17;;;23.90;99.90;;;;;;4973625;28;20538;-74
2021/10/20 10:26:56;;;;;;;7.73;2.17;;;23.80;99.90;;;;;;4975245;28;20419;-74
2021/10/20 10:29:21;;;;;;;4.63;2.60;;;23.90;99.90;;;;;;4974966;28;20471;-74
2021/10/20 10:31:49;;;;;;;2.37;2.17;;;23.90;99.90;;;;;;4974924;28;20490;-74
2021/10/20 10:34:34;;;;;;;3.23;2.00;;;23.70;99.90;;;;;;4974753;28;20481;-74
2021/10/20 10:37:00;;;;;;;2.37;2.17;;;23.70;99.90;;;;;;4975052;28;20423;-73
2021/10/20 10:39:27;;;;;;;2.70;2.20;;;23.30;99.90;;;;;;4973085;28;20419;-74
2021/10/20 10:42:00;;;;;;;2.10;2.00;;;22.90;99.90;;;;;;4974848;28;20435;-73
2021/10/20 10:44:31;;;;;;;7.57;3.10;;;22.60;99.90;;;;;;4974916;28;20424;-74
2021/10/20 10:47:16;;;;;;;2.60;1.70;;;22.60;99.90;;;;;;4975012;28;20498;-74
2021/10/20 10:49:54;;;;;;;2.23;2.00;;;22.90;99.90;;;;;;4974828;28;20479;-74
2021/10/20 10:52:33;;;;;;;2.73;2.00;;;23.40;99.90;;;;;;4974287;28;20466;-73
2021/10/20 10:55:18;;;;;;;4.87;1.93;;;23.40;99.90;;;;;;4974493;28;20448;-73
2021/10/20 10:57:54;;;;;;;4.53;2.03;;;23.40;99.90;;;;;;4974667;28;20415;-74
2021/10/20 11:00:20;;;;;;;6.07;2.23;;;23.30;99.90;;;;;;4974590;28;20419;-74
2021/10/20 11:02:49;;;;;;;1.57;1.40;;;23.50;99.90;;;;;;4973232;28;20497;-74
2021/10/20 11:05:21;;;;;;;2.17;2.07;;;23.40;99.90;;;;;;4973967;28;20568;-77
2021/10/20 11:07:48;;;;;;;2.07;1.97;;;23.30;99.90;;;;;;4973864;28;20936;-75
2021/10/20 11:10:16;;;;;;;1.53;1.43;;;23.50;99.90;;;;;;4974651;28;20416;-74
2021/10/20 11:12:50;;;;;;;2.00;1.70;;;23.90;99.90;;;;;;4973967;28;20463;-74
2021/10/20 11:15:18;;;;;;;3.53;1.80;;;23.90;99.90;;;;;;4974298;28;20415;-74
2021/10/20 11:17:43;;;;;;;5.17;2.10;;;23.90;99.90;;;;;;4974993;28;20817;-74
2021/10/20 11:20:13;;;;;;;3.13;2.00;;;23.90;99.90;;;;;;4971053;28;20438;-74
2021/10/20 11:22:39;;;;;;;3.40;2.10;;;23.80;99.90;;;;;;4972777;28;20192;-75
2021/10/20 11:25:07;;;;;;;1.73;1.60;;;24.00;99.90;;;;;;4973646;28;20411;-74
2021/10/20 11:27:34;;;;;;;1.77;1.67;;;24.20;99.90;;;;;;4972357;28;20474;-74
2021/10/20 11:29:59;;;;;;;2.10;2.00;;;24.40;99.90;;;;;;4974332;28;20779;-74
2021/10/20 11:32:25;;;;;;;2.07;1.43;;;24.50;99.90;;;;;;4973155;28;20541;-74
2021/10/20 11:34:51;;;;;;;1.40;1.30;;;24.50;99.90;;;;;;4973884;28;20188;-74
2021/10/20 11:37:19;;;;;;;2.40;1.30;;;24.40;99.90;;;;;;4973810;28;20168;-74
2021/10/20 11:40:00;;;;;;;1.90;1.30;;;24.20;99.90;;;;;;4974068;28;20404;-74
2021/10/20 11:42:26;;;;;;;1.67;1.57;;;23.80;99.90;;;;;;4973558;28;20439;-74
2021/10/20 11:44:52;;;;;;;1.73;1.47;;;23.60;99.90;;;;;;4972574;28;20431;-73
2021/10/20 11:47:20;;;;;;;1.97;1.87;;;23.70;99.90;;;;;;4973601;28;20772;-74
2021/10/20 11:49:51;;;;;;;3.65;1.90;;;24.00;99.90;;;;;;4973271;28;20469;-74
2021/10/20 11:52:20;;;;;;;4.13;1.60;;;24.00;99.90;;;;;;4973373;28;20216;-73
2021/10/20 11:54:46;;;;;;;10.40;1.90;;;24.20;99.90;;;;;;4973409;28;20411;-73
2021/10/20 11:57:15;;;;;;;1.87;1.70;;;24.40;99.90;;;;;;4973311;28;20423;-74
2021/10/20 11:59:41;;;;;;;9.87;2.10;;;24.60;99.90;;;;;;4973625;28;20247;-73
2021/10/20 12:02:08;;;;;;;1.60;1.50;;;24.60;99.90;;;;;;4973309;28;20430;-74
2021/10/20 12:04:34;;;;;;;5.23;1.60;;;24.30;99.90;;;;;;4973165;28;20179;-74
2021/10/20 12:07:02;;;;;;;2.63;1.90;;;24.00;99.90;;;;;;4971686;28;20420;-75
2021/10/20 12:09:30;;;;;;;2.67;1.90;;;23.70;99.90;;;;;;4973743;28;20424;-73
2021/10/20 12:11:57;;;;;;;2.60;2.37;;;23.70;99.90;;;;;;4974390;28;20486;-74
2021/10/20 12:14:29;;;;;;;5.80;1.80;;;23.60;99.90;;;;;;4973017;28;20461;-74
2021/10/20 12:16:55;;;;;;;4.03;2.30;;;23.60;99.90;;;;;;4973503;28;20765;-74
2021/10/20 12:19:21;;;;;;;1.90;1.80;;;23.40;99.90;;;;;;4972581;28;20415;-74
2021/10/20 12:21:47;;;;;;;3.27;2.00;;;23.40;99.90;;;;;;4973162;28;20780;-73
2021/10/20 12:24:15;;;;;;;2.67;1.77;;;23.50;99.90;;;;;;4955543;28;20514;-72
2021/10/20 12:26:42;;;;;;;2.03;1.93;;;23.70;99.90;;;;;;4972720;28;20182;-73
2021/10/20 12:29:10;;;;;;;3.00;1.90;;;23.70;99.90;;;;;;4972804;28;20813;-74
2021/10/20 12:31:37;;;;;;;3.57;2.30;;;23.70;99.90;;;;;;4971459;28;20463;-75
2021/10/20 12:34:04;;;;;;;1.70;1.60;;;23.60;99.90;;;;;;4969759;28;20432;-75
2021/10/20 12:36:33;;;;;;;2.30;1.70;;;23.60;99.90;;;;;;4971075;28;20477;-73
2021/10/20 12:39:01;;;;;;;2.60;2.40;;;23.70;99.90;;;;;;4972348;28;20415;-73
2021/10/20 12:41:33;;;;;;;2.27;1.90;;;23.50;99.90;;;;;;4972600;28;20493;-74
2021/10/20 12:44:05;;;;;;;3.87;1.73;;;23.30;99.90;;;;;;4972346;28;20408;-73
2021/10/20 12:46:33;;;;;;;2.87;2.17;;;23.00;99.90;;;;;;4972707;28;20415;-73
2021/10/20 12:48:59;;;;;;;2.90;2.30;;;22.80;99.90;;;;;;4972508;28;20824;-73
2021/10/20 12:51:31;;;;;;;1.80;1.70;;;22.60;99.90;;;;;;4972801;28;20859;-73
2021/10/20 12:54:01;;;;;;;2.47;2.37;;;22.40;99.90;;;;;;4972403;28;20465;-76
2021/10/20 12:56:28;;;;;;;3.20;1.80;;;22.20;99.90;;;;;;4967842;28;20439;-74
2021/10/20 12:59:26;;;;;;;3.37;2.13;;;22.20;99.90;;;;;;4966195;28;20415;-72
2021/10/20 13:01:51;;;;;;;2.80;1.97;;;22.00;99.90;;;;;;4957772;28;20443;-74
2021/10/20 13:04:17;;;;;;;3.33;2.30;;;21.90;99.90;;;;;;4957017;28;20420;-74
2021/10/20 13:06:42;;;;;;;2.00;1.90;;;21.80;99.90;;;;;;4954290;28;20662;-73
2021/10/20 13:09:08;;;;;;;6.23;2.03;;;21.70;99.90;;;;;;4952935;29;20176;-73
2021/10/20 13:11:35;;;;;;;4.37;2.20;;;21.60;99.90;;;;;;4953204;28;20197;-73
2021/10/20 13:14:00;;;;;;;7.30;2.73;;;21.60;99.90;;;;;;4952965;29;20217;-73
2021/10/20 13:16:27;;;;;;;7.13;2.90;;;21.50;99.90;;;;;;4953073;28;20996;-73
2021/10/20 13:18:52;;;;;;;3.20;2.83;;;21.40;99.90;;;;;;4957105;28;20237;-73
2021/10/20 13:21:18;;;;;;;2.73;2.50;;;21.40;99.90;;;;;;4956866;29;20539;-73
2021/10/20 13:23:44;;;;;;;2.30;2.10;;;21.30;99.90;;;;;;4973143;28;20180;-72
2021/10/20 13:26:10;;;;;;;3.07;2.53;;;21.30;99.90;;;;;;4976309;28;20180;-73
2021/10/20 13:28:36;;;;;;;2.60;2.40;;;21.20;99.90;;;;;;4976131;28;20408;-73
2021/10/20 13:31:02;;;;;;;2.53;2.33;;;21.20;99.90;;;;;;4976232;28;20684;-73
2021/10/20 13:33:28;;;;;;;2.10;2.00;;;21.10;99.90;;;;;;4975902;28;20742;-73
2021/10/20 13:35:54;;;;;;;4.90;2.50;;;21.20;99.90;;;;;;4976096;28;20514;-73
2021/10/20 13:38:22;;;;;;;2.90;2.17;;;21.30;99.90;;;;;;4975661;28;20176;-73
2021/10/20 13:40:49;;;;;;;3.00;2.40;;;21.60;99.90;;;;;;4976265;28;20947;-72
2021/10/20 13:43:16;;;;;;;2.53;2.33;;;21.80;99.90;;;;;;4975669;28;20443;-73
2021/10/20 13:45:41;;;;;;;2.83;2.47;;;22.00;99.90;;;;;;4976022;28;20450;-73
2021/10/20 13:48:07;;;;;;;3.73;2.07;;;22.30;99.90;;;;;;4975720;28;20783;-73
2021/10/20 13:50:34;;;;;;;3.40;2.00;;;22.40;99.90;;;;;;4975872;28;20187;-72
2021/10/20 13:52:59;;;;;;;2.40;2.00;;;22.20;99.90;;;;;;4976482;28;20486;-72
2021/10/20 13:55:28;;;;;;;2.07;1.87;;;22.10;99.90;;;;;;4977459;28;20431;-73
2021/10/20 13:57:55;;;;;;;2.60;2.33;;;22.10;99.90;;;;;;4975680;28;20180;-72
2021/10/20 14:00:21;;;;;;;2.73;2.00;;;22.10;99.90;;;;;;4975663;28;20416;-73
2021/10/20 14:02:47;;;;;;;2.50;2.20;;;22.00;99.90;;;;;;4975645;28;20431;-73
2021/10/20 14:05:13;;;;;;;2.47;1.97;;;21.90;99.90;;;;;;4975590;28;20415;-74
2021/10/20 14:07:39;;;;;;;1.87;1.77;;;21.80;99.90;;;;;;4975718;28;20184;-73
2021/10/20 14:10:06;;;;;;;3.47;1.57;;;21.80;99.90;;;;;;4974789;28;20994;-72
2021/10/20 14:12:31;;;;;;;6.05;2.60;;;21.80;99.90;;;;;;4974780;28;20434;-75
2021/10/20 14:14:57;;;;;;;2.00;1.80;;;21.80;99.90;;;;;;4956022;29;20184;-76
2021/10/20 14:17:23;;;;;;;1.97;1.87;;;21.80;99.90;;;;;;4955994;29;20461;-76
2021/10/20 14:19:48;;;;;;;2.80;2.60;;;21.60;99.90;;;;;;4956252;29;20173;-76
2021/10/20 14:22:16;;;;;;;2.30;1.90;;;21.60;99.90;;;;;;4955821;28;20265;-76
2021/10/20 14:24:42;;;;;;;7.77;2.27;;;21.60;99.90;;;;;;4955838;29;20172;-75
2021/10/20 14:27:08;;;;;;;4.10;1.97;;;21.60;99.90;;;;;;4955656;28;20423;-73
2021/10/20 14:29:34;;;;;;;2.50;1.73;;;21.60;99.90;;;;;;4971310;28;20192;-75
2021/10/20 14:32:01;;;;;;;1.63;1.53;;;21.60;99.90;;;;;;4975156;28;20473;-75
2021/10/20 14:34:27;;;;;;;3.20;1.60;;;21.60;99.90;;;;;;4975036;28;20651;-75
2021/10/20 14:36:53;;;;;;;2.80;2.03;;;21.60;99.90;;;;;;4973527;28;20423;-75
2021/10/20 14:39:19;;;;;;;4.90;4.40;;;21.50;99.90;;;;;;4974429;28;20192;-75
2021/10/20 14:41:45;;;;;;;3.97;2.30;;;21.40;99.90;;;;;;4975347;28;20196;-75
2021/10/20 14:44:14;;;;;;;6.40;2.20;;;21.40;99.90;;;;;;4975192;28;20431;-74
2021/10/20 14:46:41;;;;;;;3.57;2.33;;;21.30;99.90;;;;;;4974957;28;20515;-75
2021/10/20 14:49:09;;;;;;;2.67;2.30;;;21.30;99.90;;;;;;4972924;28;21181;-75
2021/10/20 14:51:36;;;;;;;1.97;1.87;;;21.20;99.90;;;;;;4974841;28;20439;-75
2021/10/20 14:54:03;;;;;;;2.57;2.07;;;21.10;99.90;;;;;;4975286;28;20486;-75
2021/10/20 14:56:28;;;;;;;2.90;1.90;;;21.00;99.90;;;;;;4974133;28;20420;-75
2021/10/20 14:58:54;;;;;;;3.73;2.30;;;21.00;99.90;;;;;;4974914;28;20416;-75
2021/10/20 15:01:20;;;;;;;4.03;2.30;;;20.90;99.90;;;;;;4975349;28;20203;-75
2021/10/20 15:03:45;;;;;;;2.60;2.40;;;20.90;99.90;;;;;;4975537;28;20240;-75
2021/10/20 15:06:12;;;;;;;4.07;2.17;;;20.90;99.90;;;;;;4975432;28;20259;-74
2021/10/20 15:08:39;;;;;;;3.20;2.90;;;20.80;99.90;;;;;;4975212;28;20212;-75
2021/10/20 15:11:06;;;;;;;2.80;2.00;;;20.80;99.90;;;;;;4973791;28;20439;-75
2021/10/20 15:13:31;;;;;;;2.43;2.23;;;20.80;99.90;;;;;;4974294;28;20875;-75
2021/10/20 15:15:57;;;;;;;3.40;2.40;;;20.70;99.90;;;;;;4974615;28;20420;-75
2021/10/20 15:18:26;;;;;;;2.30;2.20;;;20.60;99.90;;;;;;4974893;28;20263;-74
2021/10/20 15:23:21;;;;;;;4.47;2.27;;;20.50;99.90;;;;;;4968387;28;20444;-75
2021/10/20 15:25:47;;;;;;;3.13;2.60;;;20.50;99.90;;;;;;4968671;28;20498;-74
2021/10/20 15:28:12;;;;;;;3.33;2.17;;;20.50;99.90;;;;;;4970165;28;20187;-74
2021/10/20 15:30:38;;;;;;;2.20;2.10;;;20.40;99.90;;;;;;4973487;28;20426;-74
2021/10/20 15:33:04;;;;;;;4.00;3.20;;;20.40;99.90;;;;;;4973740;28;20311;-75
2021/10/20 15:35:30;;;;;;;2.80;2.60;;;20.40;99.90;;;;;;4974327;28;20419;-74
2021/10/20 15:37:55;;;;;;;2.83;2.60;;;20.30;99.90;;;;;;4974097;28;20420;-75
2021/10/20 15:40:25;;;;;;;7.00;3.07;;;20.30;99.90;;;;;;4973254;28;20180;-75
2021/10/20 15:42:50;;;;;;;3.07;2.67;;;20.20;99.90;;;;;;4973845;28;20199;-75
2021/10/20 15:45:16;;;;;;;5.00;2.57;;;20.20;99.90;;;;;;4974072;28;20415;-74
2021/10/20 15:47:41;;;;;;;7.63;3.10;;;20.10;99.90;;;;;;4973897;28;20195;-74
2021/10/20 15:50:07;;;;;;;4.00;2.20;;;20.10;99.90;;;;;;4973951;28;20227;-74
2021/10/20 15:52:33;;;;;;;3.73;2.20;;;20.10;99.90;;;;;;4973803;28;20219;-74
2021/10/20 15:54:58;;;;;;;3.03;2.70;;;20.00;99.90;;;;;;4973882;28;20266;-74
2021/10/20 15:57:24;;;;;;;4.37;2.40;;;20.00;99.90;;;;;;4973723;28;20173;-75
2021/10/20 15:59:49;;;;;;;4.40;2.90;;;19.90;99.90;;;;;;4973023;28;20247;-75
2021/10/20 16:02:15;;;;;;;2.60;2.40;;;20.00;99.90;;;;;;4973596;28;20196;-74
2021/10/20 16:04:41;;;;;;;2.57;2.43;;;19.90;99.90;;;;;;4973608;28;20267;-74
2021/10/20 16:07:06;;;;;;;2.80;2.47;;;19.90;99.90;;;;;;4973778;28;20183;-74
2021/10/20 16:09:32;;;;;;;3.47;3.17;;;19.80;99.90;;;;;;4978834;28;20184;-74
2021/10/20 16:11:57;;;;;;;3.57;3.17;;;19.70;99.90;;;;;;4980705;28;20307;-74
2021/10/20 16:14:23;;;;;;;2.80;2.60;;;19.70;99.90;;;;;;4973210;28;20176;-75
2021/10/20 16:16:49;;;;;;;3.27;2.83;;;19.60;99.90;;;;;;4973687;28;20668;-75
2021/10/20 16:19:14;;;;;;;3.23;2.93;;;19.60;99.90;;;;;;4973677;28;20314;-74
2021/10/20 16:21:40;;;;;;;4.47;3.10;;;19.50;99.90;;;;;;4973584;28;20254;-75
2021/10/20 16:24:06;;;;;;;3.23;2.70;;;19.50;99.90;;;;;;4973329;28;20574;-74
2021/10/20 16:26:32;;;;;;;2.50;2.20;;;19.50;99.90;;;;;;4973597;28;20595;-75
2021/10/20 16:28:57;;;;;;;2.67;2.40;;;19.40;99.90;;;;;;4973110;28;20204;-74
2021/10/20 16:31:24;;;;;;;2.97;2.77;;;19.40;99.90;;;;;;4972971;28;20498;-74
2021/10/20 16:33:49;;;;;;;3.03;2.60;;;19.40;99.90;;;;;;4972982;28;20200;-75
2021/10/20 16:36:15;;;;;;;3.63;2.63;;;19.30;99.90;;;;;;4973028;28;20455;-74
2021/10/20 16:38:41;;;;;;;3.07;2.87;;;19.40;99.90;;;;;;4973083;28;20259;-74
2021/10/20 16:41:07;;;;;;;2.90;2.70;;;19.30;99.90;;;;;;4973006;28;20247;-74
2021/10/20 16:43:33;;;;;;;3.37;3.17;;;19.30;99.90;;;;;;4973049;28;20605;-74
2021/10/20 16:46:00;;;;;;;3.57;2.77;;;19.30;99.90;;;;;;4973115;28;20503;-74
2021/10/20 16:48:25;;;;;;;3.67;2.93;;;19.30;99.90;;;;;;4972902;28;20191;-75
2021/10/20 16:50:51;;;;;;;3.67;3.37;;;19.30;99.90;;;;;;4972781;28;20964;-76
2021/10/20 16:53:16;;;;;;;5.30;2.83;;;19.20;99.90;;;;;;4971798;28;20315;-76
2021/10/20 16:55:42;;;;;;;5.73;3.30;;;19.20;99.90;;;;;;4972763;28;20749;-75
2021/10/20 16:58:08;;;;;;;3.30;3.10;;;19.20;99.90;;;;;;4972317;28;20183;-76
2021/10/20 17:00:35;;;;;;;3.30;2.83;;;19.10;99.90;;;;;;4972635;28;20172;-73
2021/10/20 17:03:01;;;;;;;4.27;3.27;;;19.10;99.90;;;;;;4967609;28;20290;-75
2021/10/20 17:05:27;;;;;;;5.20;2.90;;;19.10;99.90;;;;;;4973186;28;20874;-76
2021/10/20 17:07:53;;;;;;;2.70;2.50;;;19.10;99.90;;;;;;4971234;28;20559;-75
2021/10/20 17:10:20;;;;;;;4.07;2.60;;;19.00;99.90;;;;;;4972432;28;20598;-75
2021/10/20 17:12:47;;;;;;;3.60;2.90;;;19.00;99.90;;;;;;4963085;28;20303;-76
2021/10/20 17:15:19;;;;;;;3.30;3.10;;;19.00;99.90;;;;;;4968660;28;20461;-76
2021/10/20 17:17:45;;;;;;;5.30;3.53;;;18.90;99.90;;;;;;4971840;28;20567;-76
2021/10/20 17:20:11;;;;;;;2.77;2.67;;;18.90;99.90;;;;;;4971933;28;20539;-76
2021/10/20 17:22:36;;;;;;;4.30;2.90;;;18.80;99.90;;;;;;4968235;28;20288;-75